sensor_id;sensor_type;location;lat;lon;timestamp;P1;durP1;ratioP1;P2;durP2;ratioP2
20391;SDS011;10355;53.688;10.078;2023-01-10T00:01:09;11.18;;;4.82;;
20391;SDS011;10355;53.688;10.078;2023-01-10T00:03:51;8.75;;;4.93;;
20391;SDS011;10355;53.688;10.078;2023-01-10T00:06:34;9.75;;;4.88;;
20391;SDS011;10355;53.688;10.078;2023-01-10T00:09:17;9.55;;;3.88;;
20391;SDS011;10355;53.688;10.078;2023-01-10T00:11:59;10.10;;;4.60;;
20391;SDS011;10355;53.688;10.078;2023-01-10T00:14:59;10.23;;;4.72;;
20391;SDS011;10355;53.688;10.078;2023-01-10T00:17:43;11.07;;;3.78;;
20391;SDS011;10355;53.688;10.078;2023-01-10T00:20:26;8.77;;;4.00;;
20391;SDS011;10355;53.688;10.078;2023-01-10T00:23:09;8.88;;;4.03;;
20391;SDS011;10355;53.688;10.078;2023-01-10T00:25:51;12.00;;;3.65;;
20391;SDS011;10355;53.688;10.078;2023-01-10T00:28:34;10.13;;;4.20;;
20391;SDS011;10355;53.688;10.078;2023-01-10T00:31:17;9.85;;;3.33;;
20391;SDS011;10355;53.688;10.078;2023-01-10T00:34:01;8.27;;;3.40;;
20391;SDS011;10355;53.688;10.078;2023-01-10T00:36:43;7.10;;;3.20;;
20391;SDS011;10355;53.688;10.078;2023-01-10T00:39:28;8.90;;;3.30;;
20391;SDS011;10355;53.688;10.078;2023-01-10T00:42:11;13.73;;;3.50;;
20391;SDS011;10355;53.688;10.078;2023-01-10T00:45:11;8.73;;;3.03;;
20391;SDS011;10355;53.688;10.078;2023-01-10T00:47:54;12.60;;;3.20;;
20391;SDS011;10355;53.688;10.078;2023-01-10T00:50:38;5.65;;;2.65;;
20391;SDS011;10355;53.688;10.078;2023-01-10T00:53:21;9.68;;;3.00;;
20391;SDS011;10355;53.688;10.078;2023-01-10T00:56:04;8.98;;;2.55;;
20391;SDS011;10355;53.688;10.078;2023-01-10T00:58:46;10.50;;;3.05;;
20391;SDS011;10355;53.688;10.078;2023-01-10T01:01:29;7.95;;;2.65;;
20391;SDS011;10355;53.688;10.078;2023-01-10T01:04:12;7.00;;;2.80;;
20391;SDS011;10355;53.688;10.078;2023-01-10T01:06:56;9.77;;;2.65;;
20391;SDS011;10355;53.688;10.078;2023-01-10T01:09:40;7.00;;;2.60;;
20391;SDS011;10355;53.688;10.078;2023-01-10T01:12:36;7.00;;;2.30;;
20391;SDS011;10355;53.688;10.078;2023-01-10T01:15:19;10.15;;;2.70;;
20391;SDS011;10355;53.688;10.078;2023-01-10T01:18:02;8.50;;;2.55;;
20391;SDS011;10355;53.688;10.078;2023-01-10T01:20:45;10.27;;;2.40;;
20391;SDS011;10355;53.688;10.078;2023-01-10T01:23:29;7.70;;;2.22;;
20391;SDS011;10355;53.688;10.078;2023-01-10T01:26:14;6.85;;;2.10;;
20391;SDS011;10355;53.688;10.078;2023-01-10T01:28:56;7.68;;;2.10;;
20391;SDS011;10355;53.688;10.078;2023-01-10T01:31:39;9.10;;;2.28;;
20391;SDS011;10355;53.688;10.078;2023-01-10T01:34:21;10.48;;;2.50;;
20391;SDS011;10355;53.688;10.078;2023-01-10T01:37:04;6.22;;;2.05;;
20391;SDS011;10355;53.688;10.078;2023-01-10T01:39:48;7.60;;;2.42;;
20391;SDS011;10355;53.688;10.078;2023-01-10T01:42:31;10.65;;;2.22;;
20391;SDS011;10355;53.688;10.078;2023-01-10T01:51:16;7.07;;;2.13;;
20391;SDS011;10355;53.688;10.078;2023-01-10T01:54:00;8.80;;;2.10;;
20391;SDS011;10355;53.688;10.078;2023-01-10T01:56:48;8.30;;;2.33;;
20391;SDS011;10355;53.688;10.078;2023-01-10T01:59:33;9.45;;;2.10;;
20391;SDS011;10355;53.688;10.078;2023-01-10T02:02:19;7.40;;;1.90;;
20391;SDS011;10355;53.688;10.078;2023-01-10T02:05:02;6.65;;;2.22;;
20391;SDS011;10355;53.688;10.078;2023-01-10T02:07:46;6.38;;;2.13;;
20391;SDS011;10355;53.688;10.078;2023-01-10T02:10:32;6.13;;;1.80;;
20391;SDS011;10355;53.688;10.078;2023-01-10T02:13:18;7.63;;;2.00;;
20391;SDS011;10355;53.688;10.078;2023-01-10T02:16:01;7.90;;;1.92;;
20391;SDS011;10355;53.688;10.078;2023-01-10T02:18:44;5.70;;;1.90;;
20391;SDS011;10355;53.688;10.078;2023-01-10T02:21:33;8.25;;;2.35;;
20391;SDS011;10355;53.688;10.078;2023-01-10T02:27:22;6.32;;;2.00;;
20391;SDS011;10355;53.688;10.078;2023-01-10T02:30:28;8.27;;;1.88;;
20391;SDS011;10355;53.688;10.078;2023-01-10T02:33:17;6.00;;;1.70;;
20391;SDS011;10355;53.688;10.078;2023-01-10T02:36:06;5.28;;;1.60;;
20391;SDS011;10355;53.688;10.078;2023-01-10T02:38:54;8.20;;;1.80;;
20391;SDS011;10355;53.688;10.078;2023-01-10T02:41:41;10.52;;;2.30;;
20391;SDS011;10355;53.688;10.078;2023-01-10T02:44:27;4.85;;;1.92;;
20391;SDS011;10355;53.688;10.078;2023-01-10T02:47:11;6.00;;;1.80;;
20391;SDS011;10355;53.688;10.078;2023-01-10T02:49:56;5.70;;;1.75;;
20391;SDS011;10355;53.688;10.078;2023-01-10T02:52:38;6.82;;;1.90;;
20391;SDS011;10355;53.688;10.078;2023-01-10T02:55:21;6.68;;;1.85;;
20391;SDS011;10355;53.688;10.078;2023-01-10T02:58:09;3.20;;;1.67;;
20391;SDS011;10355;53.688;10.078;2023-01-10T03:00:59;8.45;;;1.92;;
20391;SDS011;10355;53.688;10.078;2023-01-10T03:03:46;6.15;;;2.10;;
20391;SDS011;10355;53.688;10.078;2023-01-10T03:06:37;8.23;;;2.10;;
20391;SDS011;10355;53.688;10.078;2023-01-10T03:09:23;4.78;;;2.00;;
20391;SDS011;10355;53.688;10.078;2023-01-10T03:12:11;4.63;;;1.80;;
20391;SDS011;10355;53.688;10.078;2023-01-10T03:14:55;5.90;;;1.85;;
20391;SDS011;10355;53.688;10.078;2023-01-10T03:17:38;6.72;;;1.90;;
20391;SDS011;10355;53.688;10.078;2023-01-10T03:20:21;4.28;;;1.80;;
20391;SDS011;10355;53.688;10.078;2023-01-10T03:23:06;6.43;;;2.10;;
20391;SDS011;10355;53.688;10.078;2023-01-10T03:25:50;6.20;;;1.90;;
20391;SDS011;10355;53.688;10.078;2023-01-10T03:28:34;5.80;;;1.50;;
20391;SDS011;10355;53.688;10.078;2023-01-10T03:31:21;5.45;;;1.75;;
20391;SDS011;10355;53.688;10.078;2023-01-10T03:34:04;10.05;;;1.90;;
20391;SDS011;10355;53.688;10.078;2023-01-10T03:36:49;6.68;;;1.92;;
20391;SDS011;10355;53.688;10.078;2023-01-10T03:39:36;4.38;;;1.83;;
20391;SDS011;10355;53.688;10.078;2023-01-10T03:42:22;5.93;;;1.70;;
20391;SDS011;10355;53.688;10.078;2023-01-10T03:45:08;4.65;;;1.58;;
20391;SDS011;10355;53.688;10.078;2023-01-10T03:47:53;5.95;;;1.60;;
20391;SDS011;10355;53.688;10.078;2023-01-10T03:50:37;6.68;;;1.80;;
20391;SDS011;10355;53.688;10.078;2023-01-10T03:53:20;4.13;;;1.70;;
20391;SDS011;10355;53.688;10.078;2023-01-10T03:56:05;4.47;;;1.73;;
20391;SDS011;10355;53.688;10.078;2023-01-10T03:58:47;5.68;;;2.00;;
20391;SDS011;10355;53.688;10.078;2023-01-10T04:01:30;8.93;;;1.83;;
20391;SDS011;10355;53.688;10.078;2023-01-10T04:04:13;7.32;;;1.60;;
20391;SDS011;10355;53.688;10.078;2023-01-10T04:06:56;5.03;;;1.50;;
20391;SDS011;10355;53.688;10.078;2023-01-10T04:09:38;5.10;;;1.60;;
20391;SDS011;10355;53.688;10.078;2023-01-10T04:12:22;9.40;;;2.25;;
20391;SDS011;10355;53.688;10.078;2023-01-10T04:15:05;5.75;;;1.70;;
20391;SDS011;10355;53.688;10.078;2023-01-10T04:17:48;6.68;;;1.98;;
20391;SDS011;10355;53.688;10.078;2023-01-10T04:20:31;4.60;;;1.50;;
20391;SDS011;10355;53.688;10.078;2023-01-10T04:23:13;9.23;;;1.88;;
20391;SDS011;10355;53.688;10.078;2023-01-10T04:25:56;7.35;;;1.85;;
20391;SDS011;10355;53.688;10.078;2023-01-10T04:28:40;4.15;;;1.50;;
20391;SDS011;10355;53.688;10.078;2023-01-10T04:31:23;6.38;;;1.48;;
20391;SDS011;10355;53.688;10.078;2023-01-10T04:34:07;4.78;;;1.65;;
20391;SDS011;10355;53.688;10.078;2023-01-10T04:36:50;5.82;;;1.58;;
20391;SDS011;10355;53.688;10.078;2023-01-10T04:39:32;3.90;;;1.55;;
20391;SDS011;10355;53.688;10.078;2023-01-10T04:42:15;4.50;;;1.60;;
20391;SDS011;10355;53.688;10.078;2023-01-10T04:44:59;6.70;;;1.50;;
20391;SDS011;10355;53.688;10.078;2023-01-10T04:47:42;5.32;;;1.52;;
20391;SDS011;10355;53.688;10.078;2023-01-10T04:50:25;4.00;;;1.42;;
20391;SDS011;10355;53.688;10.078;2023-01-10T04:53:07;5.40;;;1.58;;
20391;SDS011;10355;53.688;10.078;2023-01-10T04:55:50;4.95;;;1.17;;
20391;SDS011;10355;53.688;10.078;2023-01-10T04:58:33;5.55;;;1.55;;
20391;SDS011;10355;53.688;10.078;2023-01-10T05:01:18;5.85;;;1.80;;
20391;SDS011;10355;53.688;10.078;2023-01-10T05:04:01;5.03;;;1.35;;
20391;SDS011;10355;53.688;10.078;2023-01-10T05:06:44;8.38;;;1.40;;
20391;SDS011;10355;53.688;10.078;2023-01-10T05:09:26;9.02;;;1.50;;
20391;SDS011;10355;53.688;10.078;2023-01-10T05:12:09;3.95;;;1.27;;
20391;SDS011;10355;53.688;10.078;2023-01-10T05:14:52;8.55;;;1.60;;
20391;SDS011;10355;53.688;10.078;2023-01-10T05:17:36;4.38;;;1.55;;
20391;SDS011;10355;53.688;10.078;2023-01-10T05:20:18;4.63;;;1.17;;
20391;SDS011;10355;53.688;10.078;2023-01-10T05:23:01;7.00;;;1.30;;
20391;SDS011;10355;53.688;10.078;2023-01-10T05:25:44;5.80;;;1.95;;
20391;SDS011;10355;53.688;10.078;2023-01-10T05:28:26;6.97;;;1.80;;
20391;SDS011;10355;53.688;10.078;2023-01-10T05:31:11;4.13;;;1.30;;
20391;SDS011;10355;53.688;10.078;2023-01-10T05:33:55;7.43;;;1.42;;
20391;SDS011;10355;53.688;10.078;2023-01-10T05:36:37;6.88;;;1.30;;
20391;SDS011;10355;53.688;10.078;2023-01-10T05:39:20;6.13;;;1.48;;
20391;SDS011;10355;53.688;10.078;2023-01-10T05:42:02;6.05;;;1.23;;
20391;SDS011;10355;53.688;10.078;2023-01-10T05:44:46;5.43;;;1.45;;
20391;SDS011;10355;53.688;10.078;2023-01-10T05:47:28;6.18;;;1.63;;
20391;SDS011;10355;53.688;10.078;2023-01-10T05:50:12;5.60;;;1.30;;
20391;SDS011;10355;53.688;10.078;2023-01-10T05:52:55;6.00;;;1.70;;
20391;SDS011;10355;53.688;10.078;2023-01-10T05:55:44;9.65;;;1.88;;
20391;SDS011;10355;53.688;10.078;2023-01-10T05:58:33;4.95;;;1.50;;
20391;SDS011;10355;53.688;10.078;2023-01-10T06:01:16;5.10;;;1.30;;
20391;SDS011;10355;53.688;10.078;2023-01-10T06:03:59;8.90;;;1.35;;
20391;SDS011;10355;53.688;10.078;2023-01-10T06:06:43;3.95;;;1.20;;
20391;SDS011;10355;53.688;10.078;2023-01-10T06:09:25;5.20;;;1.40;;
20391;SDS011;10355;53.688;10.078;2023-01-10T06:12:08;6.47;;;1.25;;
20391;SDS011;10355;53.688;10.078;2023-01-10T06:14:50;6.88;;;1.30;;
20391;SDS011;10355;53.688;10.078;2023-01-10T06:17:33;6.53;;;1.30;;
20391;SDS011;10355;53.688;10.078;2023-01-10T06:20:16;4.38;;;1.48;;
20391;SDS011;10355;53.688;10.078;2023-01-10T06:23:00;5.22;;;1.30;;
20391;SDS011;10355;53.688;10.078;2023-01-10T06:25:45;12.73;;;1.35;;
20391;SDS011;10355;53.688;10.078;2023-01-10T06:28:27;6.43;;;1.50;;
20391;SDS011;10355;53.688;10.078;2023-01-10T06:31:10;6.32;;;1.48;;
20391;SDS011;10355;53.688;10.078;2023-01-10T06:33:55;6.07;;;1.40;;
20391;SDS011;10355;53.688;10.078;2023-01-10T06:36:37;5.93;;;1.40;;
20391;SDS011;10355;53.688;10.078;2023-01-10T06:39:21;7.00;;;1.55;;
20391;SDS011;10355;53.688;10.078;2023-01-10T06:42:04;6.60;;;1.67;;
20391;SDS011;10355;53.688;10.078;2023-01-10T06:44:46;4.03;;;1.30;;
20391;SDS011;10355;53.688;10.078;2023-01-10T06:47:29;6.25;;;1.50;;
20391;SDS011;10355;53.688;10.078;2023-01-10T06:50:12;5.80;;;1.70;;
20391;SDS011;10355;53.688;10.078;2023-01-10T06:52:55;5.55;;;1.35;;
20391;SDS011;10355;53.688;10.078;2023-01-10T06:55:39;8.25;;;1.65;;
20391;SDS011;10355;53.688;10.078;2023-01-10T06:58:22;4.57;;;1.40;;
20391;SDS011;10355;53.688;10.078;2023-01-10T07:01:05;5.85;;;1.13;;
20391;SDS011;10355;53.688;10.078;2023-01-10T07:03:48;6.88;;;1.50;;
20391;SDS011;10355;53.688;10.078;2023-01-10T07:06:31;5.88;;;1.48;;
20391;SDS011;10355;53.688;10.078;2023-01-10T07:09:14;7.18;;;1.48;;
20391;SDS011;10355;53.688;10.078;2023-01-10T07:11:58;7.45;;;1.63;;
20391;SDS011;10355;53.688;10.078;2023-01-10T07:14:41;4.10;;;1.10;;
20391;SDS011;10355;53.688;10.078;2023-01-10T07:17:24;7.78;;;1.70;;
20391;SDS011;10355;53.688;10.078;2023-01-10T07:20:07;5.10;;;1.45;;
20391;SDS011;10355;53.688;10.078;2023-01-10T07:22:53;4.45;;;1.25;;
20391;SDS011;10355;53.688;10.078;2023-01-10T07:25:36;4.85;;;1.33;;
20391;SDS011;10355;53.688;10.078;2023-01-10T07:28:20;4.88;;;1.42;;
20391;SDS011;10355;53.688;10.078;2023-01-10T07:31:03;5.78;;;1.58;;
20391;SDS011;10355;53.688;10.078;2023-01-10T07:33:46;5.93;;;1.10;;
20391;SDS011;10355;53.688;10.078;2023-01-10T07:36:29;10.57;;;1.85;;
20391;SDS011;10355;53.688;10.078;2023-01-10T07:39:12;5.50;;;1.45;;
20391;SDS011;10355;53.688;10.078;2023-01-10T07:41:54;6.38;;;1.42;;
20391;SDS011;10355;53.688;10.078;2023-01-10T07:44:38;5.95;;;1.73;;
20391;SDS011;10355;53.688;10.078;2023-01-10T07:47:21;10.90;;;1.48;;
20391;SDS011;10355;53.688;10.078;2023-01-10T07:50:04;4.93;;;1.45;;
20391;SDS011;10355;53.688;10.078;2023-01-10T07:52:47;4.28;;;1.73;;
20391;SDS011;10355;53.688;10.078;2023-01-10T07:55:30;6.75;;;1.50;;
20391;SDS011;10355;53.688;10.078;2023-01-10T07:58:15;5.40;;;1.50;;
20391;SDS011;10355;53.688;10.078;2023-01-10T08:00:59;9.88;;;1.60;;
20391;SDS011;10355;53.688;10.078;2023-01-10T08:03:42;7.60;;;1.70;;
20391;SDS011;10355;53.688;10.078;2023-01-10T08:06:25;9.63;;;1.83;;
20391;SDS011;10355;53.688;10.078;2023-01-10T08:09:08;8.25;;;1.52;;
20391;SDS011;10355;53.688;10.078;2023-01-10T08:11:50;5.38;;;1.40;;
20391;SDS011;10355;53.688;10.078;2023-01-10T08:14:33;5.68;;;1.73;;
20391;SDS011;10355;53.688;10.078;2023-01-10T08:17:17;9.40;;;1.90;;
20391;SDS011;10355;53.688;10.078;2023-01-10T08:20:00;6.85;;;1.55;;
20391;SDS011;10355;53.688;10.078;2023-01-10T08:22:42;5.47;;;1.50;;
20391;SDS011;10355;53.688;10.078;2023-01-10T08:25:25;7.53;;;1.70;;
20391;SDS011;10355;53.688;10.078;2023-01-10T08:28:08;6.75;;;1.52;;
20391;SDS011;10355;53.688;10.078;2023-01-10T08:30:51;7.57;;;1.92;;
20391;SDS011;10355;53.688;10.078;2023-01-10T08:33:37;10.43;;;1.83;;
20391;SDS011;10355;53.688;10.078;2023-01-10T08:36:20;9.40;;;2.42;;
20391;SDS011;10355;53.688;10.078;2023-01-10T08:39:04;6.80;;;2.05;;
20391;SDS011;10355;53.688;10.078;2023-01-10T08:41:47;5.70;;;1.70;;
20391;SDS011;10355;53.688;10.078;2023-01-10T08:44:30;10.68;;;1.90;;
20391;SDS011;10355;53.688;10.078;2023-01-10T08:47:12;11.38;;;2.25;;
20391;SDS011;10355;53.688;10.078;2023-01-10T08:49:56;8.43;;;2.08;;
20391;SDS011;10355;53.688;10.078;2023-01-10T08:52:39;11.18;;;2.20;;
20391;SDS011;10355;53.688;10.078;2023-01-10T08:55:22;5.75;;;1.90;;
20391;SDS011;10355;53.688;10.078;2023-01-10T08:58:04;4.82;;;1.83;;
20391;SDS011;10355;53.688;10.078;2023-01-10T09:00:47;7.45;;;2.00;;
20391;SDS011;10355;53.688;10.078;2023-01-10T09:03:29;7.45;;;2.17;;
20391;SDS011;10355;53.688;10.078;2023-01-10T09:06:14;6.72;;;2.05;;
20391;SDS011;10355;53.688;10.078;2023-01-10T09:08:56;10.20;;;2.08;;
20391;SDS011;10355;53.688;10.078;2023-01-10T09:11:39;9.38;;;2.70;;
20391;SDS011;10355;53.688;10.078;2023-01-10T09:14:22;6.20;;;2.00;;
20391;SDS011;10355;53.688;10.078;2023-01-10T09:17:05;7.82;;;2.60;;
20391;SDS011;10355;53.688;10.078;2023-01-10T09:19:47;10.10;;;2.63;;
20391;SDS011;10355;53.688;10.078;2023-01-10T09:22:31;7.25;;;2.75;;
20391;SDS011;10355;53.688;10.078;2023-01-10T09:25:14;7.97;;;2.65;;
20391;SDS011;10355;53.688;10.078;2023-01-10T09:27:57;9.73;;;2.50;;
20391;SDS011;10355;53.688;10.078;2023-01-10T09:30:40;7.47;;;2.65;;
20391;SDS011;10355;53.688;10.078;2023-01-10T09:33:22;8.88;;;2.67;;
20391;SDS011;10355;53.688;10.078;2023-01-10T09:36:10;9.23;;;2.50;;
20391;SDS011;10355;53.688;10.078;2023-01-10T09:38:55;6.38;;;2.53;;
20391;SDS011;10355;53.688;10.078;2023-01-10T09:41:46;6.55;;;2.13;;
20391;SDS011;10355;53.688;10.078;2023-01-10T09:44:35;7.25;;;2.83;;
20391;SDS011;10355;53.688;10.078;2023-01-10T09:47:22;11.70;;;3.00;;
20391;SDS011;10355;53.688;10.078;2023-01-10T09:50:09;9.18;;;2.80;;
20391;SDS011;10355;53.688;10.078;2023-01-10T09:52:56;8.65;;;3.03;;
20391;SDS011;10355;53.688;10.078;2023-01-10T09:55:41;6.45;;;2.70;;
20391;SDS011;10355;53.688;10.078;2023-01-10T09:58:25;7.53;;;3.35;;
20391;SDS011;10355;53.688;10.078;2023-01-10T10:01:10;9.50;;;3.47;;
20391;SDS011;10355;53.688;10.078;2023-01-10T10:03:57;10.18;;;3.05;;
20391;SDS011;10355;53.688;10.078;2023-01-10T10:06:41;7.63;;;3.00;;
20391;SDS011;10355;53.688;10.078;2023-01-10T10:09:30;9.90;;;3.10;;
20391;SDS011;10355;53.688;10.078;2023-01-10T10:12:21;9.40;;;3.30;;
20391;SDS011;10355;53.688;10.078;2023-01-10T10:15:08;8.93;;;3.22;;
20391;SDS011;10355;53.688;10.078;2023-01-10T10:17:58;7.00;;;2.63;;
20391;SDS011;10355;53.688;10.078;2023-01-10T10:20:50;8.98;;;3.05;;
20391;SDS011;10355;53.688;10.078;2023-01-10T10:23:43;6.82;;;2.90;;
20391;SDS011;10355;53.688;10.078;2023-01-10T10:26:27;8.02;;;3.05;;
20391;SDS011;10355;53.688;10.078;2023-01-10T10:29:16;11.27;;;3.17;;
20391;SDS011;10355;53.688;10.078;2023-01-10T10:35:01;9.57;;;3.78;;
20391;SDS011;10355;53.688;10.078;2023-01-10T10:37:44;10.27;;;4.35;;
20391;SDS011;10355;53.688;10.078;2023-01-10T10:40:31;14.48;;;4.13;;
20391;SDS011;10355;53.688;10.078;2023-01-10T10:43:16;11.18;;;3.88;;
20391;SDS011;10355;53.688;10.078;2023-01-10T10:46:04;9.38;;;3.80;;
20391;SDS011;10355;53.688;10.078;2023-01-10T10:48:50;9.10;;;3.60;;
20391;SDS011;10355;53.688;10.078;2023-01-10T10:51:37;8.43;;;3.30;;
20391;SDS011;10355;53.688;10.078;2023-01-10T10:54:21;13.70;;;3.60;;
20391;SDS011;10355;53.688;10.078;2023-01-10T10:57:04;9.45;;;3.78;;
20391;SDS011;10355;53.688;10.078;2023-01-10T10:59:47;10.00;;;3.85;;
20391;SDS011;10355;53.688;10.078;2023-01-10T11:02:32;9.25;;;3.83;;
20391;SDS011;10355;53.688;10.078;2023-01-10T11:05:15;8.20;;;3.65;;
20391;SDS011;10355;53.688;10.078;2023-01-10T11:07:59;8.45;;;3.55;;
20391;SDS011;10355;53.688;10.078;2023-01-10T11:10:45;10.02;;;4.07;;
20391;SDS011;10355;53.688;10.078;2023-01-10T11:13:37;7.85;;;3.67;;
20391;SDS011;10355;53.688;10.078;2023-01-10T11:16:22;13.50;;;3.88;;
20391;SDS011;10355;53.688;10.078;2023-01-10T11:19:17;10.07;;;3.70;;
20391;SDS011;10355;53.688;10.078;2023-01-10T11:22:01;8.70;;;3.92;;
20391;SDS011;10355;53.688;10.078;2023-01-10T11:24:48;8.43;;;3.83;;
20391;SDS011;10355;53.688;10.078;2023-01-10T11:27:35;8.82;;;3.30;;
20391;SDS011;10355;53.688;10.078;2023-01-10T11:30:24;8.70;;;3.55;;
20391;SDS011;10355;53.688;10.078;2023-01-10T11:33:16;13.45;;;3.40;;
20391;SDS011;10355;53.688;10.078;2023-01-10T11:36:01;9.18;;;3.40;;
20391;SDS011;10355;53.688;10.078;2023-01-10T11:38:45;8.80;;;3.30;;
20391;SDS011;10355;53.688;10.078;2023-01-10T11:41:39;7.30;;;3.40;;
20391;SDS011;10355;53.688;10.078;2023-01-10T11:44:23;12.70;;;3.70;;
20391;SDS011;10355;53.688;10.078;2023-01-10T11:47:08;12.27;;;3.58;;
20391;SDS011;10355;53.688;10.078;2023-01-10T11:49:54;6.05;;;3.50;;
20391;SDS011;10355;53.688;10.078;2023-01-10T11:52:42;13.23;;;4.03;;
20391;SDS011;10355;53.688;10.078;2023-01-10T11:55:26;10.60;;;3.65;;
20391;SDS011;10355;53.688;10.078;2023-01-10T11:58:09;9.35;;;3.42;;
20391;SDS011;10355;53.688;10.078;2023-01-10T12:00:53;10.60;;;4.13;;
20391;SDS011;10355;53.688;10.078;2023-01-10T12:03:39;10.38;;;4.15;;
20391;SDS011;10355;53.688;10.078;2023-01-10T12:06:23;12.27;;;4.00;;
20391;SDS011;10355;53.688;10.078;2023-01-10T12:09:09;10.70;;;3.88;;
20391;SDS011;10355;53.688;10.078;2023-01-10T12:12:15;8.88;;;3.70;;
20391;SDS011;10355;53.688;10.078;2023-01-10T12:14:59;15.13;;;3.97;;
20391;SDS011;10355;53.688;10.078;2023-01-10T12:17:43;12.70;;;3.90;;
20391;SDS011;10355;53.688;10.078;2023-01-10T12:20:26;11.25;;;4.07;;
20391;SDS011;10355;53.688;10.078;2023-01-10T12:23:17;11.13;;;3.80;;
20391;SDS011;10355;53.688;10.078;2023-01-10T12:26:02;15.05;;;4.07;;
20391;SDS011;10355;53.688;10.078;2023-01-10T12:28:52;10.98;;;4.13;;
20391;SDS011;10355;53.688;10.078;2023-01-10T12:31:39;10.48;;;3.97;;
20391;SDS011;10355;53.688;10.078;2023-01-10T12:34:24;11.38;;;3.67;;
20391;SDS011;10355;53.688;10.078;2023-01-10T12:37:11;10.35;;;3.67;;
20391;SDS011;10355;53.688;10.078;2023-01-10T12:39:55;11.02;;;3.42;;
20391;SDS011;10355;53.688;10.078;2023-01-10T12:42:44;10.10;;;4.32;;
20391;SDS011;10355;53.688;10.078;2023-01-10T12:45:49;12.05;;;4.07;;
20391;SDS011;10355;53.688;10.078;2023-01-10T12:48:36;11.05;;;4.30;;
20391;SDS011;10355;53.688;10.078;2023-01-10T12:51:23;11.80;;;3.63;;
20391;SDS011;10355;53.688;10.078;2023-01-10T12:54:09;11.10;;;3.67;;
20391;SDS011;10355;53.688;10.078;2023-01-10T12:56:54;12.20;;;3.40;;
20391;SDS011;10355;53.688;10.078;2023-01-10T12:59:38;10.82;;;3.85;;
20391;SDS011;10355;53.688;10.078;2023-01-10T13:02:23;11.30;;;4.15;;
20391;SDS011;10355;53.688;10.078;2023-01-10T13:05:06;8.77;;;3.60;;
20391;SDS011;10355;53.688;10.078;2023-01-10T13:07:58;10.77;;;3.58;;
20391;SDS011;10355;53.688;10.078;2023-01-10T13:10:42;8.43;;;3.33;;
20391;SDS011;10355;53.688;10.078;2023-01-10T13:13:28;12.15;;;3.60;;
20391;SDS011;10355;53.688;10.078;2023-01-10T13:16:17;11.52;;;3.42;;
20391;SDS011;10355;53.688;10.078;2023-01-10T13:19:04;9.93;;;3.28;;
20391;SDS011;10355;53.688;10.078;2023-01-10T13:21:47;11.02;;;3.40;;
20391;SDS011;10355;53.688;10.078;2023-01-10T13:24:29;10.35;;;3.42;;
20391;SDS011;10355;53.688;10.078;2023-01-10T13:27:16;7.55;;;2.72;;
20391;SDS011;10355;53.688;10.078;2023-01-10T13:30:01;10.68;;;3.70;;
20391;SDS011;10355;53.688;10.078;2023-01-10T13:32:45;9.02;;;3.35;;
20391;SDS011;10355;53.688;10.078;2023-01-10T13:35:37;7.40;;;2.92;;
20391;SDS011;10355;53.688;10.078;2023-01-10T13:38:21;10.60;;;3.90;;
20391;SDS011;10355;53.688;10.078;2023-01-10T13:41:04;10.02;;;3.40;;
20391;SDS011;10355;53.688;10.078;2023-01-10T13:44:01;10.60;;;3.40;;
20391;SDS011;10355;53.688;10.078;2023-01-10T13:46:45;10.65;;;3.45;;
20391;SDS011;10355;53.688;10.078;2023-01-10T13:52:33;10.85;;;3.80;;
20391;SDS011;10355;53.688;10.078;2023-01-10T13:55:23;9.32;;;3.92;;
20391;SDS011;10355;53.688;10.078;2023-01-10T13:58:38;9.05;;;3.67;;
20391;SDS011;10355;53.688;10.078;2023-01-10T14:01:38;11.43;;;3.90;;
20391;SDS011;10355;53.688;10.078;2023-01-10T14:04:44;13.63;;;3.83;;
20391;SDS011;10355;53.688;10.078;2023-01-10T14:07:28;10.27;;;3.80;;
20391;SDS011;10355;53.688;10.078;2023-01-10T14:10:18;11.15;;;3.72;;
20391;SDS011;10355;53.688;10.078;2023-01-10T14:13:03;11.15;;;4.00;;
20391;SDS011;10355;53.688;10.078;2023-01-10T14:15:49;12.38;;;3.72;;
20391;SDS011;10355;53.688;10.078;2023-01-10T14:18:32;9.45;;;3.45;;
20391;SDS011;10355;53.688;10.078;2023-01-10T14:21:20;11.20;;;4.10;;
20391;SDS011;10355;53.688;10.078;2023-01-10T14:24:05;9.13;;;3.28;;
20391;SDS011;10355;53.688;10.078;2023-01-10T14:26:59;11.50;;;3.90;;
20391;SDS011;10355;53.688;10.078;2023-01-10T14:29:44;11.00;;;3.20;;
20391;SDS011;10355;53.688;10.078;2023-01-10T14:32:32;7.85;;;3.40;;
20391;SDS011;10355;53.688;10.078;2023-01-10T14:35:16;13.70;;;3.80;;
20391;SDS011;10355;53.688;10.078;2023-01-10T14:38:00;7.88;;;3.15;;
20391;SDS011;10355;53.688;10.078;2023-01-10T14:40:44;9.70;;;3.00;;
20391;SDS011;10355;53.688;10.078;2023-01-10T14:43:29;9.82;;;3.22;;
20391;SDS011;10355;53.688;10.078;2023-01-10T14:46:14;10.45;;;3.08;;
20391;SDS011;10355;53.688;10.078;2023-01-10T14:48:59;10.02;;;3.13;;
20391;SDS011;10355;53.688;10.078;2023-01-10T14:51:42;13.10;;;3.33;;
20391;SDS011;10355;53.688;10.078;2023-01-10T14:54:25;10.60;;;3.10;;
20391;SDS011;10355;53.688;10.078;2023-01-10T14:57:15;10.82;;;2.97;;
20391;SDS011;10355;53.688;10.078;2023-01-10T15:00:04;8.48;;;3.00;;
20391;SDS011;10355;53.688;10.078;2023-01-10T15:02:47;8.07;;;2.75;;
20391;SDS011;10355;53.688;10.078;2023-01-10T15:05:31;9.77;;;2.90;;
20391;SDS011;10355;53.688;10.078;2023-01-10T15:08:20;9.77;;;3.00;;
20391;SDS011;10355;53.688;10.078;2023-01-10T15:11:04;5.47;;;2.38;;
20391;SDS011;10355;53.688;10.078;2023-01-10T15:13:47;7.80;;;2.67;;
20391;SDS011;10355;53.688;10.078;2023-01-10T15:16:32;8.60;;;2.33;;
20391;SDS011;10355;53.688;10.078;2023-01-10T15:19:18;7.15;;;2.22;;
20391;SDS011;10355;53.688;10.078;2023-01-10T15:22:01;11.32;;;2.58;;
20391;SDS011;10355;53.688;10.078;2023-01-10T15:24:55;8.73;;;2.35;;
20391;SDS011;10355;53.688;10.078;2023-01-10T15:27:40;5.63;;;2.33;;
20391;SDS011;10355;53.688;10.078;2023-01-10T15:30:27;6.97;;;2.22;;
20391;SDS011;10355;53.688;10.078;2023-01-10T15:33:12;9.88;;;2.42;;
20391;SDS011;10355;53.688;10.078;2023-01-10T15:35:56;12.85;;;2.83;;
20391;SDS011;10355;53.688;10.078;2023-01-10T15:38:44;10.82;;;2.88;;
20391;SDS011;10355;53.688;10.078;2023-01-10T15:41:28;13.32;;;2.80;;
20391;SDS011;10355;53.688;10.078;2023-01-10T15:47:36;5.95;;;2.55;;
20391;SDS011;10355;53.688;10.078;2023-01-10T15:50:23;11.70;;;2.47;;
20391;SDS011;10355;53.688;10.078;2023-01-10T15:53:08;10.98;;;2.70;;
20391;SDS011;10355;53.688;10.078;2023-01-10T15:55:52;8.15;;;2.42;;
20391;SDS011;10355;53.688;10.078;2023-01-10T15:58:35;10.60;;;2.70;;
20391;SDS011;10355;53.688;10.078;2023-01-10T16:01:17;7.78;;;2.60;;
20391;SDS011;10355;53.688;10.078;2023-01-10T16:04:01;6.40;;;2.60;;
20391;SDS011;10355;53.688;10.078;2023-01-10T16:06:46;12.38;;;3.20;;
20391;SDS011;10355;53.688;10.078;2023-01-10T16:09:30;11.40;;;2.58;;
20391;SDS011;10355;53.688;10.078;2023-01-10T16:12:22;7.63;;;2.40;;
20391;SDS011;10355;53.688;10.078;2023-01-10T16:15:23;6.38;;;2.65;;
20391;SDS011;10355;53.688;10.078;2023-01-10T16:18:07;10.93;;;3.00;;
20391;SDS011;10355;53.688;10.078;2023-01-10T16:20:50;13.27;;;2.78;;
20391;SDS011;10355;53.688;10.078;2023-01-10T16:23:34;9.15;;;3.08;;
20391;SDS011;10355;53.688;10.078;2023-01-10T16:26:17;9.45;;;2.72;;
20391;SDS011;10355;53.688;10.078;2023-01-10T16:29:00;7.78;;;2.70;;
20391;SDS011;10355;53.688;10.078;2023-01-10T16:31:43;10.02;;;3.33;;
20391;SDS011;10355;53.688;10.078;2023-01-10T16:34:26;10.85;;;3.15;;